sensor_id;sensor_type;location;lat;lon;timestamp;P1;durP1;ratioP1;P2;durP2;ratioP2
8040;SDS011;4063;48.140;10.250;2022-10-16T00:01:06;8.77;;;4.90;;
8040;SDS011;4063;48.140;10.250;2022-10-16T00:03:32;4.70;;;3.93;;
8040;SDS011;4063;48.140;10.250;2022-10-16T00:05:59;6.30;;;4.17;;
8040;SDS011;4063;48.140;10.250;2022-10-16T00:08:25;11.25;;;4.20;;
8040;SDS011;4063;48.140;10.250;2022-10-16T00:10:51;7.22;;;4.20;;
8040;SDS011;4063;48.140;10.250;2022-10-16T00:13:17;4.53;;;4.07;;
8040;SDS011;4063;48.140;10.250;2022-10-16T00:15:44;6.67;;;4.00;;
8040;SDS011;4063;48.140;10.250;2022-10-16T00:18:11;6.00;;;3.40;;
8040;SDS011;4063;48.140;10.250;2022-10-16T00:20:37;4.03;;;3.60;;
8040;SDS011;4063;48.140;10.250;2022-10-16T00:23:04;5.18;;;3.92;;
8040;SDS011;4063;48.140;10.250;2022-10-16T00:25:30;4.93;;;3.60;;
8040;SDS011;4063;48.140;10.250;2022-10-16T00:27:58;7.23;;;4.43;;
8040;SDS011;4063;48.140;10.250;2022-10-16T00:30:24;5.32;;;3.72;;
8040;SDS011;4063;48.140;10.250;2022-10-16T00:32:52;5.60;;;3.70;;
8040;SDS011;4063;48.140;10.250;2022-10-16T00:35:18;3.93;;;3.63;;
8040;SDS011;4063;48.140;10.250;2022-10-16T00:37:44;4.40;;;4.00;;
8040;SDS011;4063;48.140;10.250;2022-10-16T00:40:10;6.87;;;4.00;;
8040;SDS011;4063;48.140;10.250;2022-10-16T00:42:36;9.40;;;3.83;;
8040;SDS011;4063;48.140;10.250;2022-10-16T00:45:03;6.10;;;3.63;;
8040;SDS011;4063;48.140;10.250;2022-10-16T00:47:30;13.97;;;3.90;;
8040;SDS011;4063;48.140;10.250;2022-10-16T00:50:11;6.77;;;3.80;;
8040;SDS011;4063;48.140;10.250;2022-10-16T00:52:39;4.10;;;3.23;;
8040;SDS011;4063;48.140;10.250;2022-10-16T00:55:06;4.03;;;3.63;;
8040;SDS011;4063;48.140;10.250;2022-10-16T00:57:34;6.03;;;3.83;;
8040;SDS011;4063;48.140;10.250;2022-10-16T01:00:03;6.57;;;3.40;;
8040;SDS011;4063;48.140;10.250;2022-10-16T01:02:30;13.53;;;3.70;;
8040;SDS011;4063;48.140;10.250;2022-10-16T01:04:56;3.83;;;3.50;;
8040;SDS011;4063;48.140;10.250;2022-10-16T01:07:36;6.83;;;3.00;;
8040;SDS011;4063;48.140;10.250;2022-10-16T01:10:07;3.50;;;3.20;;
8040;SDS011;4063;48.140;10.250;2022-10-16T01:12:36;6.47;;;3.43;;
8040;SDS011;4063;48.140;10.250;2022-10-16T01:15:08;4.40;;;4.00;;
8040;SDS011;4063;48.140;10.250;2022-10-16T01:17:41;7.17;;;3.30;;
8040;SDS011;4063;48.140;10.250;2022-10-16T01:25:25;4.93;;;3.20;;
8040;SDS011;4063;48.140;10.250;2022-10-16T01:27:54;3.43;;;3.13;;
8040;SDS011;4063;48.140;10.250;2022-10-16T01:30:25;4.60;;;2.90;;
8040;SDS011;4063;48.140;10.250;2022-10-16T01:33:01;4.27;;;2.93;;
8040;SDS011;4063;48.140;10.250;2022-10-16T01:35:32;5.97;;;2.83;;
8040;SDS011;4063;48.140;10.250;2022-10-16T01:38:04;3.97;;;2.97;;
8040;SDS011;4063;48.140;10.250;2022-10-16T01:40:32;5.27;;;3.03;;
8040;SDS011;4063;48.140;10.250;2022-10-16T01:43:03;6.30;;;3.43;;
8040;SDS011;4063;48.140;10.250;2022-10-16T01:45:31;4.20;;;3.00;;
8040;SDS011;4063;48.140;10.250;2022-10-16T01:47:57;5.43;;;2.80;;
8040;SDS011;4063;48.140;10.250;2022-10-16T01:50:24;3.23;;;2.80;;
8040;SDS011;4063;48.140;10.250;2022-10-16T01:52:51;3.50;;;3.20;;
8040;SDS011;4063;48.140;10.250;2022-10-16T01:55:21;4.97;;;2.97;;
8040;SDS011;4063;48.140;10.250;2022-10-16T01:57:48;3.30;;;2.73;;
8040;SDS011;4063;48.140;10.250;2022-10-16T02:00:16;4.90;;;3.00;;
8040;SDS011;4063;48.140;10.250;2022-10-16T02:02:44;5.80;;;2.70;;
8040;SDS011;4063;48.140;10.250;2022-10-16T02:05:13;6.93;;;3.22;;
8040;SDS011;4063;48.140;10.250;2022-10-16T02:07:41;4.60;;;2.97;;
8040;SDS011;4063;48.140;10.250;2022-10-16T02:10:08;5.73;;;2.80;;
8040;SDS011;4063;48.140;10.250;2022-10-16T02:12:35;5.57;;;3.10;;
8040;SDS011;4063;48.140;10.250;2022-10-16T02:15:04;3.03;;;2.63;;
8040;SDS011;4063;48.140;10.250;2022-10-16T02:17:31;7.47;;;3.40;;
8040;SDS011;4063;48.140;10.250;2022-10-16T02:19:58;9.83;;;3.27;;
8040;SDS011;4063;48.140;10.250;2022-10-16T02:22:29;4.10;;;3.00;;
8040;SDS011;4063;48.140;10.250;2022-10-16T02:25:00;3.73;;;2.70;;
8040;SDS011;4063;48.140;10.250;2022-10-16T02:30:19;5.23;;;2.60;;
8040;SDS011;4063;48.140;10.250;2022-10-16T02:32:47;6.70;;;2.90;;
8040;SDS011;4063;48.140;10.250;2022-10-16T02:35:18;10.73;;;3.27;;
8040;SDS011;4063;48.140;10.250;2022-10-16T02:37:44;3.50;;;2.45;;
8040;SDS011;4063;48.140;10.250;2022-10-16T02:40:11;4.53;;;3.15;;
8040;SDS011;4063;48.140;10.250;2022-10-16T02:42:38;3.70;;;2.83;;
8040;SDS011;4063;48.140;10.250;2022-10-16T02:45:05;5.43;;;2.92;;
8040;SDS011;4063;48.140;10.250;2022-10-16T02:47:31;4.88;;;3.08;;
8040;SDS011;4063;48.140;10.250;2022-10-16T02:49:57;7.05;;;3.13;;
8040;SDS011;4063;48.140;10.250;2022-10-16T02:52:23;8.65;;;2.97;;
8040;SDS011;4063;48.140;10.250;2022-10-16T02:54:49;10.23;;;2.85;;
8040;SDS011;4063;48.140;10.250;2022-10-16T02:57:16;3.65;;;2.60;;
8040;SDS011;4063;48.140;10.250;2022-10-16T02:59:42;5.80;;;2.63;;
8040;SDS011;4063;48.140;10.250;2022-10-16T03:02:08;3.22;;;2.85;;
8040;SDS011;4063;48.140;10.250;2022-10-16T03:04:34;4.82;;;2.63;;
8040;SDS011;4063;48.140;10.250;2022-10-16T03:07:00;4.03;;;2.60;;
8040;SDS011;4063;48.140;10.250;2022-10-16T03:09:26;3.75;;;2.47;;
8040;SDS011;4063;48.140;10.250;2022-10-16T03:11:52;3.67;;;2.38;;
8040;SDS011;4063;48.140;10.250;2022-10-16T03:14:18;4.67;;;2.60;;
8040;SDS011;4063;48.140;10.250;2022-10-16T03:16:44;5.90;;;2.40;;
8040;SDS011;4063;48.140;10.250;2022-10-16T03:19:09;3.15;;;2.67;;
8040;SDS011;4063;48.140;10.250;2022-10-16T03:21:35;4.43;;;2.90;;
8040;SDS011;4063;48.140;10.250;2022-10-16T03:24:01;3.13;;;2.45;;
8040;SDS011;4063;48.140;10.250;2022-10-16T03:26:27;2.78;;;2.40;;
8040;SDS011;4063;48.140;10.250;2022-10-16T03:28:53;8.83;;;2.63;;
8040;SDS011;4063;48.140;10.250;2022-10-16T03:31:19;5.03;;;2.43;;
8040;SDS011;4063;48.140;10.250;2022-10-16T03:33:45;5.27;;;2.27;;
8040;SDS011;4063;48.140;10.250;2022-10-16T03:36:12;3.85;;;2.40;;
8040;SDS011;4063;48.140;10.250;2022-10-16T03:38:38;4.35;;;2.33;;
8040;SDS011;4063;48.140;10.250;2022-10-16T03:41:04;3.40;;;2.47;;
8040;SDS011;4063;48.140;10.250;2022-10-16T03:43:32;3.67;;;2.83;;
8040;SDS011;4063;48.140;10.250;2022-10-16T03:45:58;4.38;;;3.20;;
8040;SDS011;4063;48.140;10.250;2022-10-16T03:48:24;2.53;;;2.30;;
8040;SDS011;4063;48.140;10.250;2022-10-16T03:50:50;3.87;;;2.10;;
8040;SDS011;4063;48.140;10.250;2022-10-16T03:53:16;5.97;;;2.47;;
8040;SDS011;4063;48.140;10.250;2022-10-16T03:55:43;3.07;;;2.23;;
8040;SDS011;4063;48.140;10.250;2022-10-16T03:58:09;2.23;;;1.90;;
8040;SDS011;4063;48.140;10.250;2022-10-16T04:00:35;4.80;;;2.38;;
8040;SDS011;4063;48.140;10.250;2022-10-16T04:03:01;2.40;;;2.07;;
8040;SDS011;4063;48.140;10.250;2022-10-16T04:05:27;8.93;;;2.27;;
8040;SDS011;4063;48.140;10.250;2022-10-16T04:07:53;4.40;;;2.23;;
8040;SDS011;4063;48.140;10.250;2022-10-16T04:10:20;2.45;;;2.25;;
8040;SDS011;4063;48.140;10.250;2022-10-16T04:12:46;4.25;;;2.22;;
8040;SDS011;4063;48.140;10.250;2022-10-16T04:15:12;4.20;;;2.40;;
8040;SDS011;4063;48.140;10.250;2022-10-16T04:17:38;7.25;;;2.40;;
8040;SDS011;4063;48.140;10.250;2022-10-16T04:20:04;4.57;;;3.20;;
8040;SDS011;4063;48.140;10.250;2022-10-16T04:22:30;3.57;;;3.20;;
8040;SDS011;4063;48.140;10.250;2022-10-16T04:24:56;8.47;;;3.67;;
8040;SDS011;4063;48.140;10.250;2022-10-16T04:27:22;8.93;;;3.80;;
8040;SDS011;4063;48.140;10.250;2022-10-16T04:29:48;28.90;;;13.77;;
8040;SDS011;4063;48.140;10.250;2022-10-16T04:32:14;24.80;;;11.47;;
8040;SDS011;4063;48.140;10.250;2022-10-16T04:34:40;26.97;;;12.90;;
8040;SDS011;4063;48.140;10.250;2022-10-16T04:37:06;26.67;;;13.93;;
8040;SDS011;4063;48.140;10.250;2022-10-16T04:39:32;32.13;;;15.00;;
8040;SDS011;4063;48.140;10.250;2022-10-16T04:41:58;22.05;;;10.00;;
8040;SDS011;4063;48.140;10.250;2022-10-16T04:44:24;15.67;;;5.80;;
8040;SDS011;4063;48.140;10.250;2022-10-16T04:46:50;15.17;;;7.53;;
8040;SDS011;4063;48.140;10.250;2022-10-16T04:49:16;23.93;;;12.43;;
8040;SDS011;4063;48.140;10.250;2022-10-16T04:51:43;16.10;;;10.43;;
8040;SDS011;4063;48.140;10.250;2022-10-16T04:54:09;20.97;;;10.53;;
8040;SDS011;4063;48.140;10.250;2022-10-16T04:56:35;30.93;;;12.87;;
8040;SDS011;4063;48.140;10.250;2022-10-16T04:59:08;21.93;;;11.37;;
8040;SDS011;4063;48.140;10.250;2022-10-16T05:01:33;18.57;;;9.20;;
8040;SDS011;4063;48.140;10.250;2022-10-16T05:03:59;13.10;;;7.57;;
8040;SDS011;4063;48.140;10.250;2022-10-16T05:06:26;10.37;;;5.50;;
8040;SDS011;4063;48.140;10.250;2022-10-16T05:08:52;12.17;;;6.47;;
8040;SDS011;4063;48.140;10.250;2022-10-16T05:11:18;16.80;;;8.57;;
8040;SDS011;4063;48.140;10.250;2022-10-16T05:13:44;14.57;;;7.93;;
8040;SDS011;4063;48.140;10.250;2022-10-16T05:16:10;10.93;;;6.90;;
8040;SDS011;4063;48.140;10.250;2022-10-16T05:18:36;9.83;;;6.10;;
8040;SDS011;4063;48.140;10.250;2022-10-16T05:21:02;10.13;;;5.73;;
8040;SDS011;4063;48.140;10.250;2022-10-16T05:23:28;8.80;;;5.50;;
8040;SDS011;4063;48.140;10.250;2022-10-16T05:25:55;9.77;;;5.27;;
8040;SDS011;4063;48.140;10.250;2022-10-16T05:28:23;8.17;;;3.87;;
8040;SDS011;4063;48.140;10.250;2022-10-16T05:30:49;4.43;;;2.93;;
8040;SDS011;4063;48.140;10.250;2022-10-16T05:33:15;4.43;;;2.83;;
8040;SDS011;4063;48.140;10.250;2022-10-16T05:35:42;5.40;;;2.73;;
8040;SDS011;4063;48.140;10.250;2022-10-16T05:38:08;4.97;;;2.70;;
8040;SDS011;4063;48.140;10.250;2022-10-16T05:40:34;4.50;;;2.73;;
8040;SDS011;4063;48.140;10.250;2022-10-16T05:43:00;5.07;;;2.97;;
8040;SDS011;4063;48.140;10.250;2022-10-16T05:45:26;5.80;;;3.07;;
8040;SDS011;4063;48.140;10.250;2022-10-16T05:47:52;5.70;;;3.63;;
8040;SDS011;4063;48.140;10.250;2022-10-16T05:50:18;6.87;;;3.60;;
8040;SDS011;4063;48.140;10.250;2022-10-16T05:52:44;8.17;;;2.93;;
8040;SDS011;4063;48.140;10.250;2022-10-16T05:55:10;3.57;;;2.90;;
8040;SDS011;4063;48.140;10.250;2022-10-16T05:57:36;7.30;;;2.43;;
8040;SDS011;4063;48.140;10.250;2022-10-16T06:00:02;8.90;;;2.90;;
8040;SDS011;4063;48.140;10.250;2022-10-16T06:02:28;4.20;;;2.97;;
8040;SDS011;4063;48.140;10.250;2022-10-16T06:04:54;5.80;;;3.07;;
8040;SDS011;4063;48.140;10.250;2022-10-16T06:07:21;3.70;;;3.13;;
8040;SDS011;4063;48.140;10.250;2022-10-16T06:09:50;3.60;;;2.77;;
8040;SDS011;4063;48.140;10.250;2022-10-16T06:12:16;5.07;;;3.10;;
8040;SDS011;4063;48.140;10.250;2022-10-16T06:14:42;4.43;;;2.97;;
8040;SDS011;4063;48.140;10.250;2022-10-16T06:17:08;4.20;;;3.03;;
8040;SDS011;4063;48.140;10.250;2022-10-16T06:19:34;7.47;;;2.80;;
8040;SDS011;4063;48.140;10.250;2022-10-16T06:22:00;4.87;;;3.57;;
8040;SDS011;4063;48.140;10.250;2022-10-16T06:24:27;4.80;;;2.50;;
8040;SDS011;4063;48.140;10.250;2022-10-16T06:26:53;2.80;;;2.35;;
8040;SDS011;4063;48.140;10.250;2022-10-16T06:29:19;3.13;;;2.60;;
8040;SDS011;4063;48.140;10.250;2022-10-16T06:31:45;2.60;;;2.40;;
8040;SDS011;4063;48.140;10.250;2022-10-16T06:34:11;5.20;;;2.07;;
8040;SDS011;4063;48.140;10.250;2022-10-16T06:36:38;3.42;;;2.63;;
8040;SDS011;4063;48.140;10.250;2022-10-16T06:39:04;3.40;;;2.80;;
8040;SDS011;4063;48.140;10.250;2022-10-16T06:41:32;6.78;;;2.88;;
8040;SDS011;4063;48.140;10.250;2022-10-16T06:43:58;2.97;;;2.25;;
8040;SDS011;4063;48.140;10.250;2022-10-16T06:46:25;2.45;;;2.25;;
8040;SDS011;4063;48.140;10.250;2022-10-16T06:48:52;6.20;;;2.47;;
8040;SDS011;4063;48.140;10.250;2022-10-16T06:51:20;7.75;;;2.33;;
8040;SDS011;4063;48.140;10.250;2022-10-16T06:53:47;2.10;;;1.90;;
8040;SDS011;4063;48.140;10.250;2022-10-16T06:56:17;10.85;;;2.30;;
8040;SDS011;4063;48.140;10.250;2022-10-16T06:58:43;4.72;;;2.55;;
8040;SDS011;4063;48.140;10.250;2022-10-16T07:01:10;2.67;;;2.15;;
8040;SDS011;4063;48.140;10.250;2022-10-16T07:03:37;2.28;;;1.73;;
8040;SDS011;4063;48.140;10.250;2022-10-16T07:06:04;5.00;;;2.22;;
8040;SDS011;4063;48.140;10.250;2022-10-16T07:08:31;5.03;;;1.88;;
8040;SDS011;4063;48.140;10.250;2022-10-16T07:10:58;6.22;;;1.80;;
8040;SDS011;4063;48.140;10.250;2022-10-16T07:13:24;4.82;;;1.90;;
8040;SDS011;4063;48.140;10.250;2022-10-16T07:15:50;3.85;;;2.38;;
8040;SDS011;4063;48.140;10.250;2022-10-16T07:18:16;1.80;;;1.70;;
8040;SDS011;4063;48.140;10.250;2022-10-16T07:20:42;2.35;;;1.42;;
8040;SDS011;4063;48.140;10.250;2022-10-16T07:23:08;2.05;;;1.85;;
8040;SDS011;4063;48.140;10.250;2022-10-16T07:25:34;3.75;;;1.60;;
8040;SDS011;4063;48.140;10.250;2022-10-16T07:28:00;3.13;;;1.70;;
8040;SDS011;4063;48.140;10.250;2022-10-16T07:30:26;1.98;;;1.77;;
8040;SDS011;4063;48.140;10.250;2022-10-16T07:32:52;2.80;;;2.15;;
8040;SDS011;4063;48.140;10.250;2022-10-16T07:35:18;7.68;;;5.63;;
8040;SDS011;4063;48.140;10.250;2022-10-16T07:37:45;17.02;;;10.20;;
8040;SDS011;4063;48.140;10.250;2022-10-16T07:40:11;5.90;;;3.85;;
8040;SDS011;4063;48.140;10.250;2022-10-16T07:42:37;4.95;;;2.40;;
8040;SDS011;4063;48.140;10.250;2022-10-16T07:45:03;3.28;;;2.00;;
8040;SDS011;4063;48.140;10.250;2022-10-16T07:47:29;1.77;;;1.67;;
8040;SDS011;4063;48.140;10.250;2022-10-16T07:49:55;5.38;;;1.73;;
8040;SDS011;4063;48.140;10.250;2022-10-16T07:52:21;5.28;;;1.77;;
8040;SDS011;4063;48.140;10.250;2022-10-16T07:54:47;3.63;;;1.90;;
8040;SDS011;4063;48.140;10.250;2022-10-16T07:57:13;1.88;;;1.60;;
8040;SDS011;4063;48.140;10.250;2022-10-16T07:59:44;2.40;;;1.80;;
8040;SDS011;4063;48.140;10.250;2022-10-16T08:02:11;3.28;;;1.63;;
8040;SDS011;4063;48.140;10.250;2022-10-16T08:04:37;3.10;;;1.50;;
8040;SDS011;4063;48.140;10.250;2022-10-16T08:07:03;2.80;;;1.50;;
8040;SDS011;4063;48.140;10.250;2022-10-16T08:09:29;2.42;;;1.70;;
8040;SDS011;4063;48.140;10.250;2022-10-16T08:11:55;3.28;;;1.50;;
8040;SDS011;4063;48.140;10.250;2022-10-16T08:14:21;2.05;;;1.40;;
8040;SDS011;4063;48.140;10.250;2022-10-16T08:16:47;1.73;;;1.60;;
8040;SDS011;4063;48.140;10.250;2022-10-16T08:19:13;2.60;;;1.55;;
8040;SDS011;4063;48.140;10.250;2022-10-16T08:21:40;7.70;;;2.05;;
8040;SDS011;4063;48.140;10.250;2022-10-16T08:24:06;1.63;;;1.30;;
8040;SDS011;4063;48.140;10.250;2022-10-16T08:26:32;4.45;;;1.70;;
8040;SDS011;4063;48.140;10.250;2022-10-16T08:28:58;3.80;;;1.50;;
8040;SDS011;4063;48.140;10.250;2022-10-16T08:31:24;2.05;;;1.60;;
8040;SDS011;4063;48.140;10.250;2022-10-16T08:33:52;1.60;;;1.45;;
8040;SDS011;4063;48.140;10.250;2022-10-16T08:36:18;1.92;;;1.50;;
8040;SDS011;4063;48.140;10.250;2022-10-16T08:38:43;6.72;;;1.65;;
8040;SDS011;4063;48.140;10.250;2022-10-16T08:46:11;3.55;;;1.52;;
8040;SDS011;4063;48.140;10.250;2022-10-16T08:48:47;1.13;;;1.05;;
8040;SDS011;4063;48.140;10.250;2022-10-16T08:51:35;3.70;;;1.70;;
8040;SDS011;4063;48.140;10.250;2022-10-16T08:54:03;5.93;;;5.38;;
8040;SDS011;4063;48.140;10.250;2022-10-16T08:56:29;6.03;;;5.40;;
8040;SDS011;4063;48.140;10.250;2022-10-16T08:58:57;10.50;;;4.95;;
8040;SDS011;4063;48.140;10.250;2022-10-16T09:01:23;3.25;;;2.78;;
8040;SDS011;4063;48.140;10.250;2022-10-16T09:16:28;2.10;;;1.40;;
8040;SDS011;4063;48.140;10.250;2022-10-16T09:19:09;2.38;;;1.50;;
8040;SDS011;4063;48.140;10.250;2022-10-16T09:21:41;1.60;;;1.30;;
8040;SDS011;4063;48.140;10.250;2022-10-16T09:24:14;4.95;;;1.40;;
8040;SDS011;4063;48.140;10.250;2022-10-16T09:26:41;1.92;;;1.35;;
8040;SDS011;4063;48.140;10.250;2022-10-16T09:29:09;2.53;;;1.30;;
8040;SDS011;4063;48.140;10.250;2022-10-16T09:31:35;3.35;;;1.38;;
8040;SDS011;4063;48.140;10.250;2022-10-16T09:34:02;2.47;;;1.52;;
8040;SDS011;4063;48.140;10.250;2022-10-16T09:36:32;2.42;;;1.63;;
8040;SDS011;4063;48.140;10.250;2022-10-16T09:39:03;2.40;;;1.23;;
8040;SDS011;4063;48.140;10.250;2022-10-16T09:41:30;4.03;;;1.48;;
8040;SDS011;4063;48.140;10.250;2022-10-16T09:43:57;2.85;;;1.52;;
8040;SDS011;4063;48.140;10.250;2022-10-16T09:49:05;2.03;;;1.83;;
8040;SDS011;4063;48.140;10.250;2022-10-16T09:51:42;3.80;;;1.48;;
8040;SDS011;4063;48.140;10.250;2022-10-16T09:56:34;4.53;;;1.60;;
8040;SDS011;4063;48.140;10.250;2022-10-16T09:59:08;4.80;;;1.40;;
8040;SDS011;4063;48.140;10.250;2022-10-16T10:01:37;1.67;;;1.48;;
8040;SDS011;4063;48.140;10.250;2022-10-16T10:04:04;2.85;;;1.50;;
8040;SDS011;4063;48.140;10.250;2022-10-16T10:06:31;3.53;;;1.33;;
8040;SDS011;4063;48.140;10.250;2022-10-16T10:14:06;2.38;;;1.23;;
8040;SDS011;4063;48.140;10.250;2022-10-16T10:16:36;3.25;;;1.35;;
8040;SDS011;4063;48.140;10.250;2022-10-16T10:19:02;2.38;;;1.55;;
8040;SDS011;4063;48.140;10.250;2022-10-16T10:21:28;3.35;;;1.30;;
8040;SDS011;4063;48.140;10.250;2022-10-16T10:23:57;4.88;;;1.90;;
8040;SDS011;4063;48.140;10.250;2022-10-16T10:26:24;3.20;;;1.50;;
8040;SDS011;4063;48.140;10.250;2022-10-16T10:31:29;1.63;;;1.38;;
8040;SDS011;4063;48.140;10.250;2022-10-16T10:36:29;4.68;;;1.60;;
8040;SDS011;4063;48.140;10.250;2022-10-16T10:47:00;2.53;;;1.45;;
8040;SDS011;4063;48.140;10.250;2022-10-16T11:04:29;2.15;;;1.30;;
8040;SDS011;4063;48.140;10.250;2022-10-16T11:06:59;1.40;;;1.30;;
8040;SDS011;4063;48.140;10.250;2022-10-16T11:09:28;1.95;;;1.33;;
8040;SDS011;4063;48.140;10.250;2022-10-16T11:11:58;4.20;;;1.30;;
8040;SDS011;4063;48.140;10.250;2022-10-16T11:14:26;2.50;;;1.60;;
8040;SDS011;4063;48.140;10.250;2022-10-16T11:16:56;1.30;;;1.20;;
8040;SDS011;4063;48.140;10.250;2022-10-16T11:22:09;1.35;;;1.15;;
8040;SDS011;4063;48.140;10.250;2022-10-16T11:25:21;2.50;;;1.30;;
8040;SDS011;4063;48.140;10.250;2022-10-16T11:27:26;3.35;;;2.35;;
8040;SDS011;4063;48.140;10.250;2022-10-16T11:29:56;4.18;;;2.00;;
8040;SDS011;4063;48.140;10.250;2022-10-16T11:32:25;3.25;;;1.50;;
8040;SDS011;4063;48.140;10.250;2022-10-16T11:34:57;1.80;;;1.20;;
8040;SDS011;4063;48.140;10.250;2022-10-16T11:37:30;2.15;;;1.30;;
8040;SDS011;4063;48.140;10.250;2022-10-16T11:40:03;2.30;;;1.42;;
8040;SDS011;4063;48.140;10.250;2022-10-16T11:42:36;4.28;;;1.40;;
8040;SDS011;4063;48.140;10.250;2022-10-16T11:47:37;1.40;;;1.20;;
8040;SDS011;4063;48.140;10.250;2022-10-16T11:53:18;3.22;;;1.23;;
8040;SDS011;4063;48.140;10.250;2022-10-16T11:55:47;2.72;;;1.48;;
8040;SDS011;4063;48.140;10.250;2022-10-16T11:58:16;4.00;;;1.60;;
8040;SDS011;4063;48.140;10.250;2022-10-16T12:00:50;2.45;;;1.05;;
8040;SDS011;4063;48.140;10.250;2022-10-16T12:03:20;2.83;;;1.35;;
8040;SDS011;4063;48.140;10.250;2022-10-16T12:08:33;2.28;;;1.27;;
8040;SDS011;4063;48.140;10.250;2022-10-16T12:16:56;2.38;;;1.00;;
8040;SDS011;4063;48.140;10.250;2022-10-16T12:19:24;2.25;;;1.20;;
8040;SDS011;4063;48.140;10.250;2022-10-16T12:21:51;1.10;;;1.00;;
8040;SDS011;4063;48.140;10.250;2022-10-16T12:26:55;3.58;;;1.10;;
8040;SDS011;4063;48.140;10.250;2022-10-16T12:29:23;1.73;;;1.38;;
8040;SDS011;4063;48.140;10.250;2022-10-16T12:31:54;4.22;;;1.17;;
8040;SDS011;4063;48.140;10.250;2022-10-16T12:34:41;1.73;;;1.05;;
8040;SDS011;4063;48.140;10.250;2022-10-16T12:37:20;1.10;;;1.00;;
8040;SDS011;4063;48.140;10.250;2022-10-16T12:39:47;1.63;;;1.38;;
8040;SDS011;4063;48.140;10.250;2022-10-16T12:42:31;1.27;;;1.10;;
8040;SDS011;4063;48.140;10.250;2022-10-16T12:44:58;1.35;;;1.25;;
8040;SDS011;4063;48.140;10.250;2022-10-16T12:49:59;2.80;;;1.75;;
8040;SDS011;4063;48.140;10.250;2022-10-16T12:52:35;2.97;;;1.20;;
8040;SDS011;4063;48.140;10.250;2022-10-16T12:55:01;1.17;;;1.08;;
8040;SDS011;4063;48.140;10.250;2022-10-16T13:13:29;1.63;;;1.02;;
8040;SDS011;4063;48.140;10.250;2022-10-16T13:23:23;0.77;;;0.77;;
8040;SDS011;4063;48.140;10.250;2022-10-16T13:26:28;4.57;;;1.13;;
8040;SDS011;4063;48.140;10.250;2022-10-16T13:28:47;3.67;;;1.10;;
8040;SDS011;4063;48.140;10.250;2022-10-16T13:31:20;3.15;;;1.05;;
8040;SDS011;4063;48.140;10.250;2022-10-16T13:33:48;2.40;;;0.95;;
8040;SDS011;4063;48.140;10.250;2022-10-16T13:36:28;1.52;;;1.15;;
8040;SDS011;4063;48.140;10.250;2022-10-16T13:41:26;2.50;;;1.00;;
8040;SDS011;4063;48.140;10.250;2022-10-16T13:43:52;1.25;;;0.80;;
8040;SDS011;4063;48.140;10.250;2022-10-16T13:46:24;2.22;;;1.20;;
8040;SDS011;4063;48.140;10.250;2022-10-16T13:48:57;1.40;;;0.90;;
8040;SDS011;4063;48.140;10.250;2022-10-16T13:51:24;3.58;;;1.17;;
8040;SDS011;4063;48.140;10.250;2022-10-16T13:53:51;1.70;;;0.98;;
8040;SDS011;4063;48.140;10.250;2022-10-16T13:56:18;1.45;;;1.13;;
8040;SDS011;4063;48.140;10.250;2022-10-16T13:58:45;1.48;;;1.08;;
8040;SDS011;4063;48.140;10.250;2022-10-16T14:01:25;5.75;;;1.38;;
8040;SDS011;4063;48.140;10.250;2022-10-16T14:03:52;1.40;;;0.98;;
8040;SDS011;4063;48.140;10.250;2022-10-16T14:06:19;1.55;;;0.80;;
8040;SDS011;4063;48.140;10.250;2022-10-16T14:09:09;3.85;;;1.00;;
8040;SDS011;4063;48.140;10.250;2022-10-16T14:11:33;3.75;;;0.93;;
8040;SDS011;4063;48.140;10.250;2022-10-16T14:14:03;1.85;;;0.93;;
8040;SDS011;4063;48.140;10.250;2022-10-16T14:16:30;3.40;;;1.10;;
8040;SDS011;4063;48.140;10.250;2022-10-16T14:18:58;1.17;;;0.80;;
8040;SDS011;4063;48.140;10.250;2022-10-16T14:21:25;1.20;;;0.85;;
8040;SDS011;4063;48.140;10.250;2022-10-16T14:23:51;2.05;;;1.13;;
8040;SDS011;4063;48.140;10.250;2022-10-16T14:26:19;2.90;;;1.20;;
8040;SDS011;4063;48.140;10.250;2022-10-16T14:28:46;3.50;;;1.23;;
8040;SDS011;4063;48.140;10.250;2022-10-16T14:33:45;1.20;;;1.10;;
8040;SDS011;4063;48.140;10.250;2022-10-16T14:38:37;2.25;;;1.10;;
8040;SDS011;4063;48.140;10.250;2022-10-16T14:41:04;3.13;;;0.90;;
8040;SDS011;4063;48.140;10.250;2022-10-16T14:45:59;13.43;;;1.77;;
8040;SDS011;4063;48.140;10.250;2022-10-16T14:48:27;1.58;;;0.88;;
8040;SDS011;4063;48.140;10.250;2022-10-16T14:50:53;2.65;;;1.10;;
8040;SDS011;4063;48.140;10.250;2022-10-16T14:53:19;1.30;;;1.00;;
8040;SDS011;4063;48.140;10.250;2022-10-16T14:55:45;1.75;;;1.10;;
8040;SDS011;4063;48.140;10.250;2022-10-16T14:58:18;3.30;;;1.10;;
8040;SDS011;4063;48.140;10.250;2022-10-16T15:00:44;1.30;;;1.10;;
8040;SDS011;4063;48.140;10.250;2022-10-16T15:03:11;3.83;;;1.20;;
8040;SDS011;4063;48.140;10.250;2022-10-16T15:05:37;1.85;;;1.00;;
8040;SDS011;4063;48.140;10.250;2022-10-16T15:08:03;1.35;;;1.25;;
8040;SDS011;4063;48.140;10.250;2022-10-16T15:10:29;1.83;;;1.13;;
8040;SDS011;4063;48.140;10.250;2022-10-16T15:12:57;1.73;;;1.20;;
8040;SDS011;4063;48.140;10.250;2022-10-16T15:17:50;2.85;;;1.30;;
8040;SDS011;4063;48.140;10.250;2022-10-16T15:20:21;3.25;;;1.08;;
8040;SDS011;4063;48.140;10.250;2022-10-16T15:22:47;3.55;;;1.20;;
8040;SDS011;4063;48.140;10.250;2022-10-16T15:25:33;2.80;;;1.20;;
8040;SDS011;4063;48.140;10.250;2022-10-16T15:27:59;1.02;;;1.02;;
8040;SDS011;4063;48.140;10.250;2022-10-16T15:30:26;2.08;;;1.20;;
8040;SDS011;4063;48.140;10.250;2022-10-16T15:32:53;1.88;;;1.50;;
8040;SDS011;4063;48.140;10.250;2022-10-16T15:35:19;4.10;;;1.35;;
8040;SDS011;4063;48.140;10.250;2022-10-16T15:37:48;3.15;;;1.45;;
8040;SDS011;4063;48.140;10.250;2022-10-16T15:40:14;2.65;;;1.30;;
8040;SDS011;4063;48.140;10.250;2022-10-16T15:42:40;1.25;;;1.10;;
8040;SDS011;4063;48.140;10.250;2022-10-16T15:45:08;2.25;;;1.30;;
8040;SDS011;4063;48.140;10.250;2022-10-16T15:47:35;1.58;;;1.23;;
8040;SDS011;4063;48.140;10.250;2022-10-16T15:50:01;3.35;;;1.40;;
8040;SDS011;4063;48.140;10.250;2022-10-16T15:52:27;3.42;;;1.40;;
8040;SDS011;4063;48.140;10.250;2022-10-16T15:54:53;2.05;;;1.20;;
8040;SDS011;4063;48.140;10.250;2022-10-16T15:57:20;3.72;;;1.58;;
8040;SDS011;4063;48.140;10.250;2022-10-16T15:59:46;1.50;;;1.20;;
8040;SDS011;4063;48.140;10.250;2022-10-16T16:02:12;2.28;;;1.33;;
8040;SDS011;4063;48.140;10.250;2022-10-16T16:04:38;3.08;;;1.65;;
8040;SDS011;4063;48.140;10.250;2022-10-16T16:07:04;1.90;;;1.35;;
8040;SDS011;4063;48.140;10.250;2022-10-16T16:09:32;5.07;;;1.38;;
8040;SDS011;4063;48.140;10.250;2022-10-16T16:11:58;3.20;;;1.60;;
8040;SDS011;4063;48.140;10.250;2022-10-16T16:14:26;3.08;;;1.33;;
8040;SDS011;4063;48.140;10.250;2022-10-16T16:16:53;3.45;;;1.52;;
8040;SDS011;4063;48.140;10.250;2022-10-16T16:19:19;2.33;;;1.55;;
8040;SDS011;4063;48.140;10.250;2022-10-16T16:21:46;3.33;;;1.38;;
8040;SDS011;4063;48.140;10.250;2022-10-16T16:24:12;3.92;;;1.50;;
8040;SDS011;4063;48.140;10.250;2022-10-16T16:26:38;4.25;;;1.70;;
8040;SDS011;4063;48.140;10.250;2022-10-16T16:29:08;2.80;;;1.73;;
8040;SDS011;4063;48.140;10.250;2022-10-16T16:31:35;2.97;;;1.70;;
8040;SDS011;4063;48.140;10.250;2022-10-16T16:34:02;3.30;;;1.95;;
8040;SDS011;4063;48.140;10.250;2022-10-16T16:36:28;2.63;;;1.77;;
8040;SDS011;4063;48.140;10.250;2022-10-16T16:38:54;2.95;;;1.70;;
8040;SDS011;4063;48.140;10.250;2022-10-16T16:41:22;9.43;;;1.80;;
8040;SDS011;4063;48.140;10.250;2022-10-16T16:43:48;6.30;;;2.65;;
8040;SDS011;4063;48.140;10.250;2022-10-16T16:46:16;3.83;;;2.88;;
8040;SDS011;4063;48.140;10.250;2022-10-16T16:48:42;5.95;;;4.00;;
8040;SDS011;4063;48.140;10.250;2022-10-16T16:51:11;11.60;;;6.25;;
8040;SDS011;4063;48.140;10.250;2022-10-16T16:53:40;7.53;;;6.85;;
8040;SDS011;4063;48.140;10.250;2022-10-16T16:56:07;10.30;;;6.90;;
8040;SDS011;4063;48.140;10.250;2022-10-16T16:58:34;6.45;;;5.80;;
8040;SDS011;4063;48.140;10.250;2022-10-16T17:01:00;8.15;;;5.63;;
8040;SDS011;4063;48.140;10.250;2022-10-16T17:03:28;7.85;;;3.45;;
8040;SDS011;4063;48.140;10.250;2022-10-16T17:05:56;7.03;;;3.17;;